sensor_id;sensor_type;location;lat;lon;timestamp;P1;durP1;ratioP1;P2;durP2;ratioP2
47455;SDS011;33202;48.512;-2.780;2023-03-04T00:02:25;3.30;;;0.55;;
47455;SDS011;33202;48.512;-2.780;2023-03-04T00:04:51;3.58;;;1.00;;
47455;SDS011;33202;48.512;-2.780;2023-03-04T00:07:17;4.60;;;1.27;;
47455;SDS011;33202;48.512;-2.780;2023-03-04T00:09:44;6.00;;;1.23;;
47455;SDS011;33202;48.512;-2.780;2023-03-04T00:12:10;7.13;;;1.15;;
47455;SDS011;33202;48.512;-2.780;2023-03-04T00:14:37;4.13;;;1.05;;
47455;SDS011;33202;48.512;-2.780;2023-03-04T00:17:03;6.60;;;1.13;;
47455;SDS011;33202;48.512;-2.780;2023-03-04T00:19:29;5.38;;;1.00;;
47455;SDS011;33202;48.512;-2.780;2023-03-04T00:21:55;3.67;;;0.80;;
47455;SDS011;33202;48.512;-2.780;2023-03-04T00:24:21;5.10;;;1.27;;
47455;SDS011;33202;48.512;-2.780;2023-03-04T00:26:48;4.18;;;0.95;;
47455;SDS011;33202;48.512;-2.780;2023-03-04T00:29:14;3.92;;;0.80;;
47455;SDS011;33202;48.512;-2.780;2023-03-04T00:31:40;7.72;;;1.30;;
47455;SDS011;33202;48.512;-2.780;2023-03-04T00:34:06;6.47;;;0.90;;
47455;SDS011;33202;48.512;-2.780;2023-03-04T00:36:32;3.08;;;0.73;;
47455;SDS011;33202;48.512;-2.780;2023-03-04T00:38:59;8.88;;;1.10;;
47455;SDS011;33202;48.512;-2.780;2023-03-04T00:41:25;6.30;;;1.20;;
47455;SDS011;33202;48.512;-2.780;2023-03-04T00:43:51;6.28;;;1.30;;
47455;SDS011;33202;48.512;-2.780;2023-03-04T00:46:17;6.53;;;1.08;;
47455;SDS011;33202;48.512;-2.780;2023-03-04T00:48:43;5.80;;;1.05;;
47455;SDS011;33202;48.512;-2.780;2023-03-04T00:51:09;2.97;;;1.02;;
47455;SDS011;33202;48.512;-2.780;2023-03-04T00:53:35;4.50;;;1.13;;
47455;SDS011;33202;48.512;-2.780;2023-03-04T00:56:01;4.97;;;1.55;;
47455;SDS011;33202;48.512;-2.780;2023-03-04T00:58:27;6.40;;;1.30;;
47455;SDS011;33202;48.512;-2.780;2023-03-04T01:00:53;3.95;;;1.13;;
47455;SDS011;33202;48.512;-2.780;2023-03-04T01:03:19;3.20;;;1.20;;
47455;SDS011;33202;48.512;-2.780;2023-03-04T01:05:45;4.95;;;1.27;;
47455;SDS011;33202;48.512;-2.780;2023-03-04T01:08:11;4.72;;;1.15;;
47455;SDS011;33202;48.512;-2.780;2023-03-04T01:10:37;3.40;;;1.00;;
47455;SDS011;33202;48.512;-2.780;2023-03-04T01:13:03;5.53;;;1.00;;
47455;SDS011;33202;48.512;-2.780;2023-03-04T01:15:29;5.43;;;1.20;;
47455;SDS011;33202;48.512;-2.780;2023-03-04T01:17:55;6.05;;;1.10;;
47455;SDS011;33202;48.512;-2.780;2023-03-04T01:20:21;4.60;;;1.02;;
47455;SDS011;33202;48.512;-2.780;2023-03-04T01:22:47;2.92;;;0.90;;
47455;SDS011;33202;48.512;-2.780;2023-03-04T01:25:13;5.53;;;1.13;;
47455;SDS011;33202;48.512;-2.780;2023-03-04T01:27:39;4.78;;;1.00;;
47455;SDS011;33202;48.512;-2.780;2023-03-04T01:30:05;3.17;;;0.95;;
47455;SDS011;33202;48.512;-2.780;2023-03-04T01:32:31;5.15;;;0.88;;
47455;SDS011;33202;48.512;-2.780;2023-03-04T01:34:57;5.07;;;0.98;;
47455;SDS011;33202;48.512;-2.780;2023-03-04T01:37:23;3.97;;;1.20;;
47455;SDS011;33202;48.512;-2.780;2023-03-04T01:39:49;4.30;;;1.08;;
47455;SDS011;33202;48.512;-2.780;2023-03-04T01:42:16;4.63;;;1.10;;
47455;SDS011;33202;48.512;-2.780;2023-03-04T01:44:43;3.83;;;1.02;;
47455;SDS011;33202;48.512;-2.780;2023-03-04T01:47:09;5.55;;;1.50;;
47455;SDS011;33202;48.512;-2.780;2023-03-04T01:49:35;5.72;;;1.17;;
47455;SDS011;33202;48.512;-2.780;2023-03-04T01:52:01;3.63;;;1.08;;
47455;SDS011;33202;48.512;-2.780;2023-03-04T01:54:27;5.53;;;1.60;;
47455;SDS011;33202;48.512;-2.780;2023-03-04T01:56:53;3.08;;;1.10;;
47455;SDS011;33202;48.512;-2.780;2023-03-04T01:59:24;8.38;;;1.48;;
47455;SDS011;33202;48.512;-2.780;2023-03-04T02:01:54;5.82;;;1.25;;
47455;SDS011;33202;48.512;-2.780;2023-03-04T02:04:21;8.35;;;1.40;;
47455;SDS011;33202;48.512;-2.780;2023-03-04T02:06:48;5.85;;;1.48;;
47455;SDS011;33202;48.512;-2.780;2023-03-04T02:09:14;6.20;;;1.55;;
47455;SDS011;33202;48.512;-2.780;2023-03-04T02:11:41;2.60;;;1.35;;
47455;SDS011;33202;48.512;-2.780;2023-03-04T02:14:07;4.20;;;1.30;;
47455;SDS011;33202;48.512;-2.780;2023-03-04T02:16:33;5.10;;;1.83;;
47455;SDS011;33202;48.512;-2.780;2023-03-04T02:18:59;5.28;;;1.50;;
47455;SDS011;33202;48.512;-2.780;2023-03-04T02:21:26;5.00;;;1.30;;
47455;SDS011;33202;48.512;-2.780;2023-03-04T02:24:08;2.92;;;1.30;;
47455;SDS011;33202;48.512;-2.780;2023-03-04T02:26:39;5.22;;;1.40;;
47455;SDS011;33202;48.512;-2.780;2023-03-04T02:29:07;5.75;;;1.65;;
47455;SDS011;33202;48.512;-2.780;2023-03-04T02:31:38;7.70;;;1.52;;
47455;SDS011;33202;48.512;-2.780;2023-03-04T02:34:13;5.97;;;1.63;;
47455;SDS011;33202;48.512;-2.780;2023-03-04T02:36:40;4.82;;;1.67;;
47455;SDS011;33202;48.512;-2.780;2023-03-04T02:39:09;6.50;;;1.90;;
47455;SDS011;33202;48.512;-2.780;2023-03-04T02:41:36;8.68;;;1.70;;
47455;SDS011;33202;48.512;-2.780;2023-03-04T02:44:02;5.38;;;2.20;;
47455;SDS011;33202;48.512;-2.780;2023-03-04T02:46:28;6.85;;;1.70;;
47455;SDS011;33202;48.512;-2.780;2023-03-04T02:48:54;6.05;;;2.03;;
47455;SDS011;33202;48.512;-2.780;2023-03-04T02:51:20;9.23;;;2.25;;
47455;SDS011;33202;48.512;-2.780;2023-03-04T02:53:46;4.68;;;1.80;;
47455;SDS011;33202;48.512;-2.780;2023-03-04T02:56:12;6.32;;;2.55;;
47455;SDS011;33202;48.512;-2.780;2023-03-04T02:58:38;11.32;;;2.85;;
47455;SDS011;33202;48.512;-2.780;2023-03-04T03:01:05;6.55;;;2.05;;
47455;SDS011;33202;48.512;-2.780;2023-03-04T03:03:31;9.15;;;2.60;;
47455;SDS011;33202;48.512;-2.780;2023-03-04T03:05:57;5.55;;;2.17;;
47455;SDS011;33202;48.512;-2.780;2023-03-04T03:08:23;7.80;;;2.30;;
47455;SDS011;33202;48.512;-2.780;2023-03-04T03:10:49;6.20;;;2.38;;
47455;SDS011;33202;48.512;-2.780;2023-03-04T03:13:15;9.32;;;2.40;;
47455;SDS011;33202;48.512;-2.780;2023-03-04T03:15:41;9.13;;;2.70;;
47455;SDS011;33202;48.512;-2.780;2023-03-04T03:18:10;8.68;;;2.70;;
47455;SDS011;33202;48.512;-2.780;2023-03-04T03:20:36;6.80;;;3.10;;
47455;SDS011;33202;48.512;-2.780;2023-03-04T03:23:02;9.48;;;2.65;;
47455;SDS011;33202;48.512;-2.780;2023-03-04T03:25:28;11.25;;;3.53;;
47455;SDS011;33202;48.512;-2.780;2023-03-04T03:27:54;15.15;;;3.80;;
47455;SDS011;33202;48.512;-2.780;2023-03-04T03:30:20;8.95;;;3.63;;
47455;SDS011;33202;48.512;-2.780;2023-03-04T03:32:46;12.40;;;2.80;;
47455;SDS011;33202;48.512;-2.780;2023-03-04T03:35:12;6.63;;;2.85;;
47455;SDS011;33202;48.512;-2.780;2023-03-04T03:37:38;7.10;;;2.95;;
47455;SDS011;33202;48.512;-2.780;2023-03-04T03:40:05;11.70;;;3.67;;
47455;SDS011;33202;48.512;-2.780;2023-03-04T03:42:31;6.82;;;2.90;;
47455;SDS011;33202;48.512;-2.780;2023-03-04T03:44:57;8.35;;;3.22;;
47455;SDS011;33202;48.512;-2.780;2023-03-04T03:47:23;12.00;;;3.40;;
47455;SDS011;33202;48.512;-2.780;2023-03-04T03:49:49;6.50;;;3.40;;
47455;SDS011;33202;48.512;-2.780;2023-03-04T03:52:15;8.77;;;3.70;;
47455;SDS011;33202;48.512;-2.780;2023-03-04T03:54:41;6.47;;;3.55;;
47455;SDS011;33202;48.512;-2.780;2023-03-04T03:57:07;7.30;;;3.50;;
47455;SDS011;33202;48.512;-2.780;2023-03-04T03:59:33;7.43;;;3.55;;
47455;SDS011;33202;48.512;-2.780;2023-03-04T04:01:59;9.63;;;4.00;;
47455;SDS011;33202;48.512;-2.780;2023-03-04T04:04:25;8.32;;;3.88;;
47455;SDS011;33202;48.512;-2.780;2023-03-04T04:06:51;13.07;;;4.00;;
47455;SDS011;33202;48.512;-2.780;2023-03-04T04:09:17;6.38;;;3.60;;
47455;SDS011;33202;48.512;-2.780;2023-03-04T04:11:43;9.60;;;4.05;;
47455;SDS011;33202;48.512;-2.780;2023-03-04T04:14:13;9.98;;;3.90;;
47455;SDS011;33202;48.512;-2.780;2023-03-04T04:16:39;10.75;;;4.32;;
47455;SDS011;33202;48.512;-2.780;2023-03-04T04:19:05;9.15;;;4.10;;
47455;SDS011;33202;48.512;-2.780;2023-03-04T04:21:31;10.38;;;3.78;;
47455;SDS011;33202;48.512;-2.780;2023-03-04T04:23:57;11.48;;;4.28;;
47455;SDS011;33202;48.512;-2.780;2023-03-04T04:26:23;11.27;;;4.40;;
47455;SDS011;33202;48.512;-2.780;2023-03-04T04:28:49;10.85;;;4.30;;
47455;SDS011;33202;48.512;-2.780;2023-03-04T04:31:15;10.30;;;4.53;;
47455;SDS011;33202;48.512;-2.780;2023-03-04T04:33:41;11.82;;;4.90;;
47455;SDS011;33202;48.512;-2.780;2023-03-04T04:36:08;10.52;;;4.63;;
47455;SDS011;33202;48.512;-2.780;2023-03-04T04:38:36;12.07;;;5.15;;
47455;SDS011;33202;48.512;-2.780;2023-03-04T04:41:02;8.27;;;4.70;;
47455;SDS011;33202;48.512;-2.780;2023-03-04T04:43:28;8.27;;;4.47;;
47455;SDS011;33202;48.512;-2.780;2023-03-04T04:45:54;11.98;;;4.85;;
47455;SDS011;33202;48.512;-2.780;2023-03-04T04:48:20;7.55;;;4.95;;
47455;SDS011;33202;48.512;-2.780;2023-03-04T04:50:52;7.95;;;4.22;;
47455;SDS011;33202;48.512;-2.780;2023-03-04T04:53:18;9.35;;;4.45;;
47455;SDS011;33202;48.512;-2.780;2023-03-04T04:55:44;9.45;;;5.22;;
47455;SDS011;33202;48.512;-2.780;2023-03-04T04:58:10;8.18;;;4.53;;
47455;SDS011;33202;48.512;-2.780;2023-03-04T05:00:36;9.32;;;4.78;;
47455;SDS011;33202;48.512;-2.780;2023-03-04T05:03:02;10.80;;;4.85;;
47455;SDS011;33202;48.512;-2.780;2023-03-04T05:05:28;9.70;;;4.97;;
47455;SDS011;33202;48.512;-2.780;2023-03-04T05:07:54;8.40;;;5.05;;
47455;SDS011;33202;48.512;-2.780;2023-03-04T05:10:20;9.40;;;4.65;;
47455;SDS011;33202;48.512;-2.780;2023-03-04T05:12:46;9.50;;;4.72;;
47455;SDS011;33202;48.512;-2.780;2023-03-04T05:15:12;8.02;;;5.53;;
47455;SDS011;33202;48.512;-2.780;2023-03-04T05:17:38;11.48;;;6.55;;
47455;SDS011;33202;48.512;-2.780;2023-03-04T05:20:04;33.05;;;13.82;;
47455;SDS011;33202;48.512;-2.780;2023-03-04T05:22:31;22.05;;;11.20;;
47455;SDS011;33202;48.512;-2.780;2023-03-04T05:24:57;18.40;;;9.05;;
47455;SDS011;33202;48.512;-2.780;2023-03-04T05:27:23;13.68;;;7.53;;
47455;SDS011;33202;48.512;-2.780;2023-03-04T05:29:49;14.07;;;6.43;;
47455;SDS011;33202;48.512;-2.780;2023-03-04T05:32:15;10.63;;;6.53;;
47455;SDS011;33202;48.512;-2.780;2023-03-04T05:34:41;13.60;;;6.57;;
47455;SDS011;33202;48.512;-2.780;2023-03-04T05:37:07;14.68;;;7.75;;
47455;SDS011;33202;48.512;-2.780;2023-03-04T05:39:33;12.32;;;6.90;;
47455;SDS011;33202;48.512;-2.780;2023-03-04T05:41:59;11.77;;;6.93;;
47455;SDS011;33202;48.512;-2.780;2023-03-04T05:44:25;11.70;;;6.95;;
47455;SDS011;33202;48.512;-2.780;2023-03-04T05:46:51;13.38;;;7.55;;
47455;SDS011;33202;48.512;-2.780;2023-03-04T05:49:17;11.40;;;7.32;;
47455;SDS011;33202;48.512;-2.780;2023-03-04T05:51:43;12.20;;;6.93;;
47455;SDS011;33202;48.512;-2.780;2023-03-04T05:54:09;10.57;;;6.80;;
47455;SDS011;33202;48.512;-2.780;2023-03-04T05:56:35;15.43;;;8.27;;
47455;SDS011;33202;48.512;-2.780;2023-03-04T05:59:01;12.85;;;7.95;;
47455;SDS011;33202;48.512;-2.780;2023-03-04T06:01:27;14.23;;;7.88;;
47455;SDS011;33202;48.512;-2.780;2023-03-04T06:03:54;10.85;;;6.95;;
47455;SDS011;33202;48.512;-2.780;2023-03-04T06:06:20;11.55;;;7.32;;
47455;SDS011;33202;48.512;-2.780;2023-03-04T06:08:46;12.07;;;7.85;;
47455;SDS011;33202;48.512;-2.780;2023-03-04T06:11:12;12.82;;;7.90;;
47455;SDS011;33202;48.512;-2.780;2023-03-04T06:13:38;14.77;;;8.32;;
47455;SDS011;33202;48.512;-2.780;2023-03-04T06:16:04;15.45;;;8.57;;
47455;SDS011;33202;48.512;-2.780;2023-03-04T06:18:30;14.80;;;9.35;;
47455;SDS011;33202;48.512;-2.780;2023-03-04T06:20:56;15.18;;;9.45;;
47455;SDS011;33202;48.512;-2.780;2023-03-04T06:23:23;14.70;;;9.50;;
47455;SDS011;33202;48.512;-2.780;2023-03-04T06:25:52;15.65;;;10.05;;
47455;SDS011;33202;48.512;-2.780;2023-03-04T06:28:18;13.82;;;8.95;;
47455;SDS011;33202;48.512;-2.780;2023-03-04T06:30:44;16.67;;;10.45;;
47455;SDS011;33202;48.512;-2.780;2023-03-04T06:33:10;15.63;;;9.93;;
47455;SDS011;33202;48.512;-2.780;2023-03-04T06:35:36;15.98;;;9.75;;
47455;SDS011;33202;48.512;-2.780;2023-03-04T06:38:02;19.20;;;11.23;;
47455;SDS011;33202;48.512;-2.780;2023-03-04T06:40:28;15.38;;;10.63;;
47455;SDS011;33202;48.512;-2.780;2023-03-04T06:42:54;18.00;;;10.18;;
47455;SDS011;33202;48.512;-2.780;2023-03-04T06:45:20;15.93;;;10.50;;
47455;SDS011;33202;48.512;-2.780;2023-03-04T06:47:46;17.85;;;11.63;;
47455;SDS011;33202;48.512;-2.780;2023-03-04T06:50:12;17.55;;;11.30;;
47455;SDS011;33202;48.512;-2.780;2023-03-04T06:52:38;18.88;;;10.93;;
47455;SDS011;33202;48.512;-2.780;2023-03-04T06:55:05;16.83;;;10.43;;
47455;SDS011;33202;48.512;-2.780;2023-03-04T06:57:31;16.02;;;10.75;;
47455;SDS011;33202;48.512;-2.780;2023-03-04T06:59:57;20.23;;;12.13;;
47455;SDS011;33202;48.512;-2.780;2023-03-04T07:02:23;18.00;;;12.10;;
47455;SDS011;33202;48.512;-2.780;2023-03-04T07:04:49;18.13;;;11.50;;
47455;SDS011;33202;48.512;-2.780;2023-03-04T07:07:15;17.50;;;11.48;;
47455;SDS011;33202;48.512;-2.780;2023-03-04T07:09:41;17.17;;;12.10;;
47455;SDS011;33202;48.512;-2.780;2023-03-04T07:12:07;19.52;;;11.73;;
47455;SDS011;33202;48.512;-2.780;2023-03-04T07:14:33;18.20;;;12.85;;
47455;SDS011;33202;48.512;-2.780;2023-03-04T07:16:59;18.40;;;12.48;;
47455;SDS011;33202;48.512;-2.780;2023-03-04T07:19:25;19.77;;;13.38;;
47455;SDS011;33202;48.512;-2.780;2023-03-04T07:21:51;20.08;;;12.85;;
47455;SDS011;33202;48.512;-2.780;2023-03-04T07:24:17;18.65;;;12.93;;
47455;SDS011;33202;48.512;-2.780;2023-03-04T07:26:43;20.42;;;13.70;;
47455;SDS011;33202;48.512;-2.780;2023-03-04T07:29:09;21.08;;;13.98;;
47455;SDS011;33202;48.512;-2.780;2023-03-04T07:31:35;24.55;;;15.20;;
47455;SDS011;33202;48.512;-2.780;2023-03-04T07:34:06;21.58;;;15.07;;
47455;SDS011;33202;48.512;-2.780;2023-03-04T07:36:33;20.35;;;13.90;;
47455;SDS011;33202;48.512;-2.780;2023-03-04T07:39:00;22.02;;;15.57;;
47455;SDS011;33202;48.512;-2.780;2023-03-04T07:41:26;24.20;;;14.80;;
47455;SDS011;33202;48.512;-2.780;2023-03-04T07:46:19;19.90;;;14.25;;
47455;SDS011;33202;48.512;-2.780;2023-03-04T07:48:45;20.30;;;14.05;;
47455;SDS011;33202;48.512;-2.780;2023-03-04T07:53:38;21.08;;;15.25;;
47455;SDS011;33202;48.512;-2.780;2023-03-04T07:56:05;20.05;;;14.73;;
47455;SDS011;33202;48.512;-2.780;2023-03-04T07:58:31;22.30;;;15.55;;
47455;SDS011;33202;48.512;-2.780;2023-03-04T08:00:57;22.85;;;15.80;;
47455;SDS011;33202;48.512;-2.780;2023-03-04T08:03:23;22.95;;;15.23;;
47455;SDS011;33202;48.512;-2.780;2023-03-04T08:05:50;24.67;;;16.08;;
47455;SDS011;33202;48.512;-2.780;2023-03-04T08:08:16;19.50;;;13.93;;
47455;SDS011;33202;48.512;-2.780;2023-03-04T08:10:42;21.95;;;15.48;;
47455;SDS011;33202;48.512;-2.780;2023-03-04T08:13:08;21.70;;;15.43;;
47455;SDS011;33202;48.512;-2.780;2023-03-04T08:15:38;21.25;;;15.48;;
47455;SDS011;33202;48.512;-2.780;2023-03-04T08:18:04;23.23;;;14.82;;
47455;SDS011;33202;48.512;-2.780;2023-03-04T08:20:30;21.05;;;15.82;;
47455;SDS011;33202;48.512;-2.780;2023-03-04T08:22:56;20.33;;;15.20;;
47455;SDS011;33202;48.512;-2.780;2023-03-04T08:25:22;22.70;;;15.55;;
47455;SDS011;33202;48.512;-2.780;2023-03-04T08:27:48;21.42;;;15.98;;
47455;SDS011;33202;48.512;-2.780;2023-03-04T08:30:14;23.02;;;16.25;;
47455;SDS011;33202;48.512;-2.780;2023-03-04T08:32:40;23.00;;;16.15;;
47455;SDS011;33202;48.512;-2.780;2023-03-04T08:35:06;21.13;;;15.38;;
47455;SDS011;33202;48.512;-2.780;2023-03-04T08:37:32;22.73;;;16.23;;
47455;SDS011;33202;48.512;-2.780;2023-03-04T08:39:58;21.67;;;16.23;;
47455;SDS011;33202;48.512;-2.780;2023-03-04T08:42:24;23.10;;;16.35;;
47455;SDS011;33202;48.512;-2.780;2023-03-04T08:44:50;24.60;;;15.95;;
47455;SDS011;33202;48.512;-2.780;2023-03-04T08:47:16;23.20;;;16.55;;
47455;SDS011;33202;48.512;-2.780;2023-03-04T08:49:42;24.02;;;16.67;;
47455;SDS011;33202;48.512;-2.780;2023-03-04T08:52:08;23.35;;;16.05;;
47455;SDS011;33202;48.512;-2.780;2023-03-04T08:54:34;22.30;;;15.50;;
47455;SDS011;33202;48.512;-2.780;2023-03-04T08:57:00;22.58;;;16.10;;
47455;SDS011;33202;48.512;-2.780;2023-03-04T08:59:28;24.13;;;15.73;;
47455;SDS011;33202;48.512;-2.780;2023-03-04T09:01:54;21.23;;;15.27;;
47455;SDS011;33202;48.512;-2.780;2023-03-04T09:04:20;21.65;;;15.05;;
47455;SDS011;33202;48.512;-2.780;2023-03-04T09:06:46;18.92;;;14.10;;
47455;SDS011;33202;48.512;-2.780;2023-03-04T09:09:12;23.45;;;15.90;;
47455;SDS011;33202;48.512;-2.780;2023-03-04T09:11:41;23.27;;;15.18;;
47455;SDS011;33202;48.512;-2.780;2023-03-04T09:14:07;21.42;;;14.88;;
47455;SDS011;33202;48.512;-2.780;2023-03-04T09:16:33;21.75;;;14.63;;
47455;SDS011;33202;48.512;-2.780;2023-03-04T09:18:59;19.90;;;13.57;;
47455;SDS011;33202;48.512;-2.780;2023-03-04T09:21:26;19.98;;;13.38;;
47455;SDS011;33202;48.512;-2.780;2023-03-04T09:23:52;22.75;;;14.45;;
47455;SDS011;33202;48.512;-2.780;2023-03-04T09:28:44;19.80;;;13.52;;
47455;SDS011;33202;48.512;-2.780;2023-03-04T09:31:11;21.40;;;13.07;;
47455;SDS011;33202;48.512;-2.780;2023-03-04T09:33:37;19.05;;;12.85;;
47455;SDS011;33202;48.512;-2.780;2023-03-04T09:36:05;18.77;;;12.40;;
47455;SDS011;33202;48.512;-2.780;2023-03-04T09:38:31;17.00;;;12.15;;
47455;SDS011;33202;48.512;-2.780;2023-03-04T09:40:57;17.45;;;10.98;;
47455;SDS011;33202;48.512;-2.780;2023-03-04T09:43:26;16.40;;;11.43;;
47455;SDS011;33202;48.512;-2.780;2023-03-04T09:45:54;18.88;;;12.32;;
47455;SDS011;33202;48.512;-2.780;2023-03-04T09:48:22;15.95;;;10.88;;
47455;SDS011;33202;48.512;-2.780;2023-03-04T09:51:08;19.08;;;12.32;;
47455;SDS011;33202;48.512;-2.780;2023-03-04T09:56:09;19.98;;;11.73;;
47455;SDS011;33202;48.512;-2.780;2023-03-04T10:03:54;16.25;;;11.65;;
47455;SDS011;33202;48.512;-2.780;2023-03-04T10:06:22;16.17;;;11.70;;
47455;SDS011;33202;48.512;-2.780;2023-03-04T10:08:53;19.13;;;11.82;;
47455;SDS011;33202;48.512;-2.780;2023-03-04T10:14:16;17.58;;;11.65;;
47455;SDS011;33202;48.512;-2.780;2023-03-04T10:24:48;15.07;;;10.70;;
47455;SDS011;33202;48.512;-2.780;2023-03-04T10:27:17;17.50;;;11.15;;
47455;SDS011;33202;48.512;-2.780;2023-03-04T10:29:43;17.60;;;11.10;;
47455;SDS011;33202;48.512;-2.780;2023-03-04T10:32:13;17.48;;;11.10;;
47455;SDS011;33202;48.512;-2.780;2023-03-04T10:34:41;15.98;;;10.55;;
47455;SDS011;33202;48.512;-2.780;2023-03-04T10:37:07;15.93;;;10.93;;
47455;SDS011;33202;48.512;-2.780;2023-03-04T10:39:40;15.37;;;10.07;;
47455;SDS011;33202;48.512;-2.780;2023-03-04T10:44:43;13.60;;;9.40;;
47455;SDS011;33202;48.512;-2.780;2023-03-04T10:47:16;12.23;;;8.68;;
47455;SDS011;33202;48.512;-2.780;2023-03-04T10:49:55;14.38;;;8.73;;
47455;SDS011;33202;48.512;-2.780;2023-03-04T10:52:28;15.57;;;8.43;;
47455;SDS011;33202;48.512;-2.780;2023-03-04T10:54:56;12.80;;;7.95;;
47455;SDS011;33202;48.512;-2.780;2023-03-04T10:57:36;13.80;;;7.82;;
47455;SDS011;33202;48.512;-2.780;2023-03-04T11:02:48;14.75;;;7.70;;
47455;SDS011;33202;48.512;-2.780;2023-03-04T11:07:44;13.38;;;8.18;;
47455;SDS011;33202;48.512;-2.780;2023-03-04T11:10:15;20.80;;;7.90;;
47455;SDS011;33202;48.512;-2.780;2023-03-04T11:12:41;14.77;;;7.47;;
47455;SDS011;33202;48.512;-2.780;2023-03-04T11:15:16;15.15;;;6.97;;
47455;SDS011;33202;48.512;-2.780;2023-03-04T11:17:44;15.82;;;7.97;;
47455;SDS011;33202;48.512;-2.780;2023-03-04T11:20:14;12.07;;;7.63;;
47455;SDS011;33202;48.512;-2.780;2023-03-04T11:22:42;11.55;;;7.53;;
47455;SDS011;33202;48.512;-2.780;2023-03-04T11:25:23;11.38;;;7.00;;
47455;SDS011;33202;48.512;-2.780;2023-03-04T11:27:51;14.07;;;6.90;;
47455;SDS011;33202;48.512;-2.780;2023-03-04T11:30:21;10.63;;;6.25;;
47455;SDS011;33202;48.512;-2.780;2023-03-04T11:32:49;8.38;;;5.45;;
47455;SDS011;33202;48.512;-2.780;2023-03-04T11:35:19;11.10;;;5.43;;
47455;SDS011;33202;48.512;-2.780;2023-03-04T11:37:49;11.52;;;5.82;;
47455;SDS011;33202;48.512;-2.780;2023-03-04T11:40:22;9.77;;;5.78;;
47455;SDS011;33202;48.512;-2.780;2023-03-04T11:43:13;10.55;;;6.00;;
47455;SDS011;33202;48.512;-2.780;2023-03-04T11:51:17;12.10;;;6.65;;
47455;SDS011;33202;48.512;-2.780;2023-03-04T11:54:04;10.27;;;5.30;;
47455;SDS011;33202;48.512;-2.780;2023-03-04T11:56:49;10.77;;;6.18;;
47455;SDS011;33202;48.512;-2.780;2023-03-04T12:04:27;10.90;;;6.22;;
47455;SDS011;33202;48.512;-2.780;2023-03-04T12:17:20;11.45;;;6.50;;
47455;SDS011;33202;48.512;-2.780;2023-03-04T12:27:48;7.55;;;3.10;;
47455;SDS011;33202;48.512;-2.780;2023-03-04T12:38:02;4.43;;;2.60;;
47455;SDS011;33202;48.512;-2.780;2023-03-04T12:43:02;4.78;;;2.58;;
47455;SDS011;33202;48.512;-2.780;2023-03-04T12:45:39;10.85;;;3.10;;
47455;SDS011;33202;48.512;-2.780;2023-03-04T12:53:10;12.55;;;2.75;;
47455;SDS011;33202;48.512;-2.780;2023-03-04T12:55:39;6.00;;;2.13;;
47455;SDS011;33202;48.512;-2.780;2023-03-04T12:58:26;6.18;;;2.53;;
47455;SDS011;33202;48.512;-2.780;2023-03-04T13:13:46;8.32;;;2.33;;
47455;SDS011;33202;48.512;-2.780;2023-03-04T13:18:54;8.43;;;2.20;;
47455;SDS011;33202;48.512;-2.780;2023-03-04T13:21:23;7.05;;;2.20;;
47455;SDS011;33202;48.512;-2.780;2023-03-04T13:23:50;10.20;;;2.53;;
47455;SDS011;33202;48.512;-2.780;2023-03-04T13:26:17;4.73;;;2.00;;
47455;SDS011;33202;48.512;-2.780;2023-03-04T13:28:45;6.10;;;1.67;;
47455;SDS011;33202;48.512;-2.780;2023-03-04T13:31:20;7.55;;;1.92;;
47455;SDS011;33202;48.512;-2.780;2023-03-04T13:36:27;6.40;;;1.25;;
47455;SDS011;33202;48.512;-2.780;2023-03-04T13:39:01;5.70;;;1.63;;
47455;SDS011;33202;48.512;-2.780;2023-03-04T13:41:29;8.77;;;1.85;;
47455;SDS011;33202;48.512;-2.780;2023-03-04T13:43:56;7.63;;;1.85;;
47455;SDS011;33202;48.512;-2.780;2023-03-04T13:53:53;9.27;;;2.47;;
47455;SDS011;33202;48.512;-2.780;2023-03-04T13:58:47;8.32;;;2.22;;
47455;SDS011;33202;48.512;-2.780;2023-03-04T14:01:23;7.35;;;2.00;;
47455;SDS011;33202;48.512;-2.780;2023-03-04T14:03:49;8.43;;;2.28;;
47455;SDS011;33202;48.512;-2.780;2023-03-04T14:06:23;6.57;;;1.83;;
47455;SDS011;33202;48.512;-2.780;2023-03-04T14:08:50;8.15;;;2.00;;
47455;SDS011;33202;48.512;-2.780;2023-03-04T14:11:33;6.70;;;1.92;;
47455;SDS011;33202;48.512;-2.780;2023-03-04T14:14:02;7.68;;;1.90;;
47455;SDS011;33202;48.512;-2.780;2023-03-04T14:16:29;4.60;;;1.50;;
47455;SDS011;33202;48.512;-2.780;2023-03-04T14:21:22;8.45;;;2.00;;
47455;SDS011;33202;48.512;-2.780;2023-03-04T14:23:58;6.32;;;1.52;;
47455;SDS011;33202;48.512;-2.780;2023-03-04T14:26:25;6.27;;;1.73;;
47455;SDS011;33202;48.512;-2.780;2023-03-04T14:28:54;11.25;;;2.38;;
47455;SDS011;33202;48.512;-2.780;2023-03-04T14:31:23;6.30;;;1.40;;
47455;SDS011;33202;48.512;-2.780;2023-03-04T14:33:53;9.82;;;1.73;;
47455;SDS011;33202;48.512;-2.780;2023-03-04T14:36:26;8.40;;;1.83;;
47455;SDS011;33202;48.512;-2.780;2023-03-04T14:38:54;9.57;;;2.00;;
47455;SDS011;33202;48.512;-2.780;2023-03-04T14:41:23;7.00;;;2.13;;
47455;SDS011;33202;48.512;-2.780;2023-03-04T14:46:16;8.45;;;2.22;;
47455;SDS011;33202;48.512;-2.780;2023-03-04T14:48:48;11.00;;;2.42;;
47455;SDS011;33202;48.512;-2.780;2023-03-04T14:53:56;11.82;;;2.75;;
47455;SDS011;33202;48.512;-2.780;2023-03-04T14:56:26;11.45;;;2.38;;
47455;SDS011;33202;48.512;-2.780;2023-03-04T14:58:53;7.13;;;2.20;;
47455;SDS011;33202;48.512;-2.780;2023-03-04T15:01:21;5.93;;;2.00;;
47455;SDS011;33202;48.512;-2.780;2023-03-04T15:04:03;10.50;;;2.97;;
47455;SDS011;33202;48.512;-2.780;2023-03-04T15:06:30;10.82;;;2.38;;
47455;SDS011;33202;48.512;-2.780;2023-03-04T15:09:07;9.43;;;2.40;;
47455;SDS011;33202;48.512;-2.780;2023-03-04T15:16:54;11.88;;;4.15;;
47455;SDS011;33202;48.512;-2.780;2023-03-04T15:21:46;7.07;;;2.50;;
47455;SDS011;33202;48.512;-2.780;2023-03-04T15:24:12;12.57;;;3.15;;
47455;SDS011;33202;48.512;-2.780;2023-03-04T15:26:40;8.70;;;2.10;;
47455;SDS011;33202;48.512;-2.780;2023-03-04T15:29:16;9.10;;;2.60;;
47455;SDS011;33202;48.512;-2.780;2023-03-04T15:31:42;11.40;;;2.42;;
47455;SDS011;33202;48.512;-2.780;2023-03-04T15:34:13;9.45;;;2.33;;
47455;SDS011;33202;48.512;-2.780;2023-03-04T15:36:39;8.13;;;2.58;;
47455;SDS011;33202;48.512;-2.780;2023-03-04T15:39:05;8.15;;;2.33;;
47455;SDS011;33202;48.512;-2.780;2023-03-04T15:43:58;9.65;;;2.47;;
47455;SDS011;33202;48.512;-2.780;2023-03-04T15:46:24;7.55;;;4.05;;
47455;SDS011;33202;48.512;-2.780;2023-03-04T15:48:50;10.48;;;3.50;;
47455;SDS011;33202;48.512;-2.780;2023-03-04T15:51:19;11.68;;;3.25;;
47455;SDS011;33202;48.512;-2.780;2023-03-04T15:53:46;11.20;;;3.05;;
47455;SDS011;33202;48.512;-2.780;2023-03-04T15:56:18;10.40;;;3.33;;
47455;SDS011;33202;48.512;-2.780;2023-03-04T15:58:46;10.40;;;2.63;;
47455;SDS011;33202;48.512;-2.780;2023-03-04T16:01:14;9.30;;;3.55;;
47455;SDS011;33202;48.512;-2.780;2023-03-04T16:03:40;11.93;;;2.78;;
47455;SDS011;33202;48.512;-2.780;2023-03-04T16:06:08;8.60;;;2.25;;
47455;SDS011;33202;48.512;-2.780;2023-03-04T16:08:34;9.05;;;3.08;;
47455;SDS011;33202;48.512;-2.780;2023-03-04T16:11:00;13.88;;;2.95;;
47455;SDS011;33202;48.512;-2.780;2023-03-04T16:13:26;12.07;;;2.80;;
47455;SDS011;33202;48.512;-2.780;2023-03-04T16:15:52;8.80;;;2.42;;
47455;SDS011;33202;48.512;-2.780;2023-03-04T16:18:18;11.30;;;2.90;;
47455;SDS011;33202;48.512;-2.780;2023-03-04T16:20:45;8.27;;;2.38;;
47455;SDS011;33202;48.512;-2.780;2023-03-04T16:23:13;7.57;;;2.38;;
47455;SDS011;33202;48.512;-2.780;2023-03-04T16:28:05;7.30;;;2.72;;
47455;SDS011;33202;48.512;-2.780;2023-03-04T16:30:31;7.80;;;2.50;;
47455;SDS011;33202;48.512;-2.780;2023-03-04T16:32:58;11.40;;;3.47;;